createdAt,value
2022-10-21T00:00:52.280Z,16.18
2022-10-21T00:03:20.509Z,16.13
2022-10-21T00:05:48.799Z,16.17
2022-10-21T00:08:17.451Z,16.22
2022-10-21T00:10:45.558Z,16.21
2022-10-21T00:13:13.668Z,16.18
2022-10-21T00:15:42.987Z,16.20
2022-10-21T00:18:10.907Z,16.21
2022-10-21T00:20:41.357Z,16.21
2022-10-21T00:23:09.327Z,16.20
2022-10-21T00:25:39.738Z,16.16
2022-10-21T00:28:07.740Z,16.11
2022-10-21T00:30:35.645Z,16.09
2022-10-21T00:33:05.000Z,16.10
2022-10-21T00:35:35.046Z,16.09
2022-10-21T00:38:02.960Z,16.07
2022-10-21T00:40:31.094Z,16.06
2022-10-21T00:42:59.487Z,16.07
2022-10-21T00:45:29.502Z,16.09
2022-10-21T00:48:03.961Z,16.08
2022-10-21T00:50:41.710Z,16.07
2022-10-21T00:53:15.191Z,16.06
2022-10-21T00:55:48.000Z,16.08
2022-10-21T00:58:18.057Z,16.10
2022-10-21T01:00:46.106Z,16.11
2022-10-21T01:03:14.788Z,16.14
2022-10-21T01:05:45.548Z,16.15
2022-10-21T01:08:13.981Z,16.15
2022-10-21T01:10:43.112Z,16.16
2022-10-21T01:13:22.839Z,16.20
2022-10-21T01:15:56.849Z,16.16
2022-10-21T01:18:32.272Z,16.18
2022-10-21T01:21:11.593Z,16.24
2022-10-21T01:27:02.762Z,15.57
2022-10-21T01:30:10.092Z,15.30
2022-10-21T01:32:58.148Z,15.40
2022-10-21T01:35:29.741Z,15.53
2022-10-21T01:38:07.327Z,15.72
2022-10-21T01:40:43.585Z,15.79
2022-10-21T01:43:18.902Z,15.86
2022-10-21T01:45:50.832Z,15.88
2022-10-21T01:48:23.704Z,15.91
2022-10-21T01:50:55.085Z,15.92
2022-10-21T01:53:27.921Z,15.93
2022-10-21T01:55:58.738Z,15.94
2022-10-21T01:58:30.752Z,15.95
2022-10-21T02:01:02.011Z,15.94
2022-10-21T02:03:33.800Z,15.84
2022-10-21T02:06:01.828Z,15.85
2022-10-21T02:08:30.215Z,15.83
2022-10-21T02:11:02.303Z,15.82
2022-10-21T02:13:36.136Z,15.82
2022-10-21T02:16:10.400Z,15.85
2022-10-21T02:18:39.837Z,15.89
2022-10-21T02:21:11.833Z,15.89
2022-10-21T02:23:47.342Z,15.88
2022-10-21T02:26:15.473Z,15.87
2022-10-21T02:28:44.316Z,15.84
2022-10-21T02:31:24.199Z,15.84
2022-10-21T02:34:04.525Z,15.84
2022-10-21T02:36:44.438Z,15.83
2022-10-21T02:39:17.820Z,15.83
2022-10-21T02:41:49.135Z,15.84
2022-10-21T02:44:17.666Z,15.87
2022-10-21T02:46:49.166Z,15.88
2022-10-21T02:49:18.486Z,15.89
2022-10-21T02:51:46.939Z,15.85
2022-10-21T02:54:14.914Z,15.84
2022-10-21T02:56:42.881Z,15.83
2022-10-21T02:59:11.084Z,15.83
2022-10-21T03:01:39.116Z,15.87
2022-10-21T03:04:07.161Z,15.85
2022-10-21T03:06:36.610Z,15.85
2022-10-21T03:09:05.425Z,15.88
2022-10-21T03:11:33.445Z,15.84
2022-10-21T03:14:01.417Z,15.76
2022-10-21T03:16:29.407Z,15.63
2022-10-21T03:18:57.417Z,15.55
2022-10-21T03:21:25.351Z,15.51
2022-10-21T03:23:54.716Z,15.44
2022-10-21T03:26:22.677Z,15.39
2022-10-21T03:28:50.569Z,15.33
2022-10-21T03:31:18.545Z,15.34
2022-10-21T03:33:46.566Z,15.41
2022-10-21T03:36:14.639Z,15.44
2022-10-21T03:38:42.716Z,15.30
2022-10-21T03:41:11.999Z,15.19
2022-10-21T03:43:39.880Z,15.22
2022-10-21T03:46:07.808Z,15.38
2022-10-21T03:48:35.739Z,15.47
2022-10-21T03:51:03.961Z,15.57
2022-10-21T03:53:43.002Z,15.66
2022-10-21T03:56:13.649Z,15.71
2022-10-21T03:58:42.063Z,15.72
2022-10-21T04:01:13.018Z,15.67
2022-10-21T04:03:41.261Z,15.64
2022-10-21T04:06:09.412Z,15.53
2022-10-21T04:08:37.473Z,15.48
2022-10-21T04:11:05.811Z,15.41
2022-10-21T04:13:35.133Z,15.50
2022-10-21T04:16:05.636Z,15.63
2022-10-21T04:18:34.331Z,15.68
2022-10-21T04:21:02.440Z,15.67
2022-10-21T04:23:30.371Z,15.65
2022-10-21T04:25:58.295Z,15.61
2022-10-21T04:28:26.279Z,15.59
2022-10-21T04:30:55.718Z,15.63
2022-10-21T04:33:23.692Z,15.67
2022-10-21T04:35:51.643Z,15.67
2022-10-21T04:38:19.585Z,15.55
2022-10-21T04:40:47.503Z,15.51
2022-10-21T04:43:15.492Z,15.57
2022-10-21T04:45:43.394Z,15.60
2022-10-21T04:48:13.795Z,15.65
2022-10-21T04:50:41.728Z,15.65
2022-10-21T04:53:09.704Z,15.63
2022-10-21T04:55:40.121Z,15.46
2022-10-21T04:58:08.159Z,15.42
2022-10-21T05:00:36.264Z,15.47
2022-10-21T05:03:04.978Z,15.42
2022-10-21T05:05:34.230Z,15.45
2022-10-21T05:08:02.474Z,15.51
2022-10-21T05:10:31.179Z,15.49
2022-10-21T05:12:59.170Z,15.42
2022-10-21T05:15:27.484Z,15.46
2022-10-21T05:17:55.578Z,15.44
2022-10-21T05:20:23.486Z,15.49
2022-10-21T05:22:53.609Z,15.48
2022-10-21T05:25:23.614Z,15.48
2022-10-21T05:27:52.133Z,15.53
2022-10-21T05:30:20.091Z,15.55
2022-10-21T05:32:48.014Z,15.56
2022-10-21T05:35:16.175Z,15.55
2022-10-21T05:37:44.103Z,15.54
2022-10-21T05:40:13.968Z,15.59
2022-10-21T05:42:41.933Z,15.66
2022-10-21T05:45:11.205Z,15.69
2022-10-21T05:47:39.695Z,15.65
2022-10-21T05:50:08.843Z,15.64
2022-10-21T05:52:36.984Z,15.52
2022-10-21T05:55:06.015Z,15.53
2022-10-21T05:57:35.611Z,15.53
2022-10-21T06:00:03.906Z,15.56
2022-10-21T06:02:34.052Z,15.66
2022-10-21T06:05:01.991Z,15.69
2022-10-21T06:07:29.909Z,15.70
2022-10-21T06:09:57.880Z,15.70
2022-10-21T06:12:25.870Z,15.76
2022-10-21T06:14:55.689Z,15.78
2022-10-21T06:17:23.871Z,15.81
2022-10-21T06:19:51.802Z,15.89
2022-10-21T06:22:19.788Z,15.95
2022-10-21T06:24:48.090Z,15.96
2022-10-21T06:27:16.024Z,15.99
2022-10-21T06:29:43.971Z,15.99
2022-10-21T06:32:13.511Z,15.97
2022-10-21T06:34:42.096Z,15.99
2022-10-21T06:37:10.048Z,16.02
2022-10-21T06:39:37.980Z,16.03
2022-10-21T06:42:05.921Z,16.05
2022-10-21T06:44:42.709Z,16.03
2022-10-21T06:47:11.483Z,16.07
2022-10-21T06:49:40.744Z,16.12
2022-10-21T06:52:08.702Z,16.10
2022-10-21T06:54:36.708Z,16.12
2022-10-21T06:57:04.921Z,16.15
2022-10-21T06:59:33.036Z,16.16
2022-10-21T07:02:01.455Z,16.23
2022-10-21T07:04:29.936Z,16.26
2022-10-21T07:06:59.591Z,16.29
2022-10-21T07:09:27.600Z,16.28
2022-10-21T07:11:56.348Z,16.24
2022-10-21T07:14:25.295Z,16.23
2022-10-21T07:16:53.956Z,16.31
2022-10-21T07:19:21.872Z,16.34
2022-10-21T07:21:49.891Z,16.41
2022-10-21T07:24:22.575Z,16.39
2022-10-21T07:26:51.585Z,16.46
2022-10-21T07:29:21.563Z,16.54
2022-10-21T07:31:49.717Z,16.64
2022-10-21T07:34:17.759Z,16.67
2022-10-21T07:36:48.395Z,16.64
2022-10-21T07:39:19.280Z,16.60
2022-10-21T07:41:49.682Z,16.51
2022-10-21T07:44:19.433Z,16.42
2022-10-21T07:46:48.101Z,16.42
2022-10-21T07:49:17.289Z,16.43
2022-10-21T07:51:46.478Z,16.48
2022-10-21T07:54:15.512Z,16.49
2022-10-21T07:56:47.982Z,16.44
2022-10-21T07:59:17.126Z,16.42
2022-10-21T08:01:47.392Z,16.48
2022-10-21T08:04:18.615Z,16.51
2022-10-21T08:06:48.602Z,16.51
2022-10-21T08:09:17.839Z,16.52
2022-10-21T08:11:47.472Z,16.55
2022-10-21T08:14:15.858Z,16.56
2022-10-21T08:16:43.869Z,16.56
2022-10-21T08:19:18.963Z,16.54
2022-10-21T08:21:47.447Z,16.54
2022-10-21T08:24:15.360Z,16.52
2022-10-21T08:26:45.187Z,16.61
2022-10-21T08:29:14.495Z,16.66
2022-10-21T08:31:42.568Z,16.70
2022-10-21T08:34:11.158Z,16.73
2022-10-21T08:36:39.781Z,16.75
2022-10-21T08:39:08.293Z,16.74
2022-10-21T08:42:02.554Z,16.78
2022-10-21T08:44:39.917Z,16.81
2022-10-21T08:47:15.218Z,16.85
2022-10-21T08:49:52.136Z,16.86
2022-10-21T08:52:24.713Z,16.85
2022-10-21T08:54:59.624Z,16.84
2022-10-21T08:57:28.691Z,16.81
2022-10-21T08:59:58.000Z,16.81
2022-10-21T09:02:36.566Z,16.81
2022-10-21T09:05:22.774Z,16.83
2022-10-21T09:08:03.387Z,16.85
2022-10-21T09:10:45.538Z,16.88
2022-10-21T09:13:18.784Z,16.91
2022-10-21T09:16:01.866Z,16.90
2022-10-21T09:18:44.990Z,16.88
2022-10-21T09:21:24.000Z,16.86
2022-10-21T09:24:03.821Z,16.85
2022-10-21T09:26:39.979Z,16.86
2022-10-21T09:29:32.304Z,16.88
2022-10-21T09:32:13.699Z,16.94
2022-10-21T09:34:55.879Z,16.99
2022-10-21T09:37:34.644Z,17.00
2022-10-21T09:40:14.135Z,17.02
2022-10-21T09:42:47.320Z,17.03
2022-10-21T09:45:22.924Z,17.07
2022-10-21T09:47:57.226Z,17.10
2022-10-21T09:50:25.680Z,17.14
2022-10-21T09:53:02.377Z,17.15
2022-10-21T09:55:32.793Z,17.15
2022-10-21T09:58:02.539Z,17.17
2022-10-21T10:00:46.867Z,17.19
2022-10-21T10:03:31.108Z,17.21
2022-10-21T10:05:59.214Z,17.21
2022-10-21T10:08:34.824Z,17.18
2022-10-21T10:11:13.851Z,17.18
2022-10-21T10:13:44.186Z,17.18
2022-10-21T10:16:22.304Z,17.15
2022-10-21T10:18:53.547Z,17.16
2022-10-21T10:21:22.963Z,17.14
2022-10-21T10:23:52.662Z,17.13
2022-10-21T10:26:29.996Z,17.12
2022-10-21T10:29:01.774Z,17.11
2022-10-21T10:31:32.589Z,17.08
2022-10-21T10:34:05.066Z,17.03
2022-10-21T10:36:36.415Z,17.02
2022-10-21T10:39:08.798Z,17.02
2022-10-21T10:41:40.473Z,17.03
2022-10-21T10:44:26.903Z,17.05
2022-10-21T10:46:57.192Z,17.05
2022-10-21T10:49:28.641Z,17.13
2022-10-21T10:52:17.004Z,17.18
2022-10-21T10:54:45.017Z,17.23
2022-10-21T10:57:17.215Z,17.28
2022-10-21T10:59:48.220Z,17.33
2022-10-21T11:02:32.820Z,17.33
2022-10-21T11:05:26.349Z,17.36
2022-10-21T11:07:56.353Z,17.39
2022-10-21T11:10:32.777Z,17.39
2022-10-21T11:13:01.603Z,17.36
2022-10-21T11:15:42.167Z,17.34
2022-10-21T11:18:25.831Z,17.32
2022-10-21T11:21:06.473Z,17.26
2022-10-21T11:24:00.106Z,17.26
2022-10-21T11:26:40.090Z,17.26
2022-10-21T11:29:24.684Z,17.19
2022-10-21T11:32:11.602Z,17.15
2022-10-21T11:34:54.025Z,17.09
2022-10-21T11:37:34.636Z,17.01
2022-10-21T11:40:15.917Z,16.92
2022-10-21T11:42:46.117Z,16.82
2022-10-21T11:45:31.877Z,16.72
2022-10-21T11:48:08.707Z,16.62
2022-10-21T11:50:47.311Z,16.58
2022-10-21T11:53:29.733Z,16.53
2022-10-21T11:56:09.404Z,16.51
2022-10-21T11:58:48.242Z,16.45
2022-10-21T12:01:27.069Z,16.42
2022-10-21T12:04:20.322Z,16.36
2022-10-21T12:06:59.681Z,16.37
2022-10-21T12:09:35.376Z,16.36
2022-10-21T12:12:07.464Z,16.36
2022-10-21T12:14:38.631Z,16.34
2022-10-21T12:17:10.328Z,16.32
2022-10-21T12:19:38.813Z,16.29
2022-10-21T12:22:08.905Z,16.28
2022-10-21T12:24:47.479Z,16.27
2022-10-21T12:27:24.954Z,16.18
2022-10-21T12:30:13.932Z,16.13
2022-10-21T12:32:49.924Z,16.15
2022-10-21T12:35:26.994Z,16.19
2022-10-21T12:38:23.615Z,16.12
2022-10-21T12:41:36.898Z,16.14
2022-10-21T12:44:29.048Z,16.13
2022-10-21T12:47:01.978Z,16.08
2022-10-21T12:49:32.778Z,16.04
2022-10-21T12:52:08.793Z,16.05
2022-10-21T12:54:52.250Z,16.00
2022-10-21T12:57:28.664Z,16.03
2022-10-21T13:00:16.472Z,16.07
2022-10-21T13:03:02.730Z,16.10
2022-10-21T13:06:03.559Z,16.14
2022-10-21T13:08:41.310Z,16.16
2022-10-21T13:11:26.363Z,16.19
2022-10-21T13:14:40.366Z,16.17
2022-10-21T13:17:29.620Z,16.16
2022-10-21T13:20:18.292Z,16.19
2022-10-21T13:22:48.644Z,16.22
2022-10-21T13:25:22.982Z,16.21
2022-10-21T13:27:54.704Z,16.27
2022-10-21T13:30:41.581Z,16.30
2022-10-21T13:33:17.712Z,16.32
2022-10-21T13:35:47.642Z,16.35
2022-10-21T13:38:22.399Z,16.36
2022-10-21T13:40:53.008Z,16.42
2022-10-21T13:43:28.924Z,16.45
2022-10-21T13:46:06.608Z,16.50
2022-10-21T13:48:39.570Z,16.53
2022-10-21T13:51:16.003Z,16.54
2022-10-21T13:53:45.925Z,16.53
2022-10-21T13:56:22.859Z,16.49
2022-10-21T13:58:51.494Z,16.46
2022-10-21T14:01:23.180Z,16.39
2022-10-21T14:03:51.688Z,16.34
2022-10-21T14:06:30.413Z,16.40
2022-10-21T14:09:00.658Z,16.43
2022-10-21T14:11:34.787Z,16.44
2022-10-21T14:14:09.647Z,16.42
2022-10-21T14:16:42.499Z,16.23
2022-10-21T14:19:16.202Z,16.23
2022-10-21T14:21:47.688Z,16.23
2022-10-21T14:24:32.978Z,16.15
2022-10-21T14:27:03.205Z,16.18
2022-10-21T14:29:34.108Z,16.22
2022-10-21T14:32:04.805Z,16.16
2022-10-21T14:34:35.676Z,16.16
2022-10-21T14:37:09.449Z,16.12
2022-10-21T14:39:40.961Z,16.10
2022-10-21T14:42:15.989Z,16.11
2022-10-21T14:44:45.851Z,16.03
2022-10-21T14:47:20.242Z,15.82
2022-10-21T14:49:50.080Z,15.85
2022-10-21T14:52:21.696Z,15.93
2022-10-21T14:54:54.111Z,15.95
2022-10-21T14:57:32.823Z,15.91
2022-10-21T15:00:03.333Z,15.78
2022-10-21T15:02:37.214Z,15.74
2022-10-21T15:05:06.902Z,15.71
2022-10-21T15:07:37.180Z,15.73
2022-10-21T15:10:16.340Z,15.77
2022-10-21T15:12:46.175Z,15.79
2022-10-21T15:15:52.420Z,15.83
2022-10-21T15:18:25.278Z,15.67
2022-10-21T15:20:56.084Z,15.48
2022-10-21T15:23:27.982Z,15.41
2022-10-21T15:26:00.401Z,15.46
2022-10-21T15:28:31.753Z,15.57
2022-10-21T15:31:00.680Z,15.65
2022-10-21T15:33:30.608Z,15.73
2022-10-21T15:36:02.983Z,15.76
2022-10-21T15:38:30.884Z,15.71
2022-10-21T15:40:58.966Z,15.64
2022-10-21T15:43:27.017Z,15.62
2022-10-21T15:45:55.151Z,15.62
2022-10-21T15:48:24.214Z,15.63
2022-10-21T15:50:56.109Z,15.65
2022-10-21T15:53:24.029Z,15.66
2022-10-21T15:55:52.112Z,15.60
2022-10-21T15:58:20.363Z,15.63
2022-10-21T16:00:48.369Z,15.61
2022-10-21T16:03:16.349Z,15.61
2022-10-21T16:05:44.447Z,15.57
2022-10-21T16:08:14.253Z,15.51
2022-10-21T16:10:47.629Z,15.52
2022-10-21T16:13:16.049Z,15.57
2022-10-21T16:15:44.340Z,15.62
2022-10-21T16:18:13.924Z,15.67
2022-10-21T16:20:43.683Z,15.66
2022-10-21T16:23:11.879Z,15.67
2022-10-21T16:25:41.148Z,15.63
2022-10-21T16:28:11.584Z,15.54
2022-10-21T16:30:40.643Z,15.43
2022-10-21T16:33:08.741Z,15.44
2022-10-21T16:35:36.728Z,15.31
2022-10-21T16:38:04.651Z,15.23
2022-10-21T16:40:35.120Z,15.35
2022-10-21T16:43:04.697Z,15.45
2022-10-21T16:45:33.630Z,15.47
2022-10-21T16:48:04.254Z,15.41
2022-10-21T16:50:39.278Z,15.38
2022-10-21T16:53:07.475Z,15.43
2022-10-21T16:55:35.901Z,15.41
2022-10-21T16:58:05.406Z,15.45
2022-10-21T17:00:33.603Z,15.49
2022-10-21T17:03:01.734Z,15.55
2022-10-21T17:05:29.830Z,15.57
2022-10-21T17:07:58.612Z,15.59
2022-10-21T17:10:26.599Z,15.62
2022-10-21T17:12:58.819Z,15.61
2022-10-21T17:15:29.078Z,15.46
2022-10-21T17:17:56.973Z,15.32
2022-10-21T17:20:24.860Z,15.36
2022-10-21T17:22:52.765Z,15.41
2022-10-21T17:25:22.822Z,15.46
2022-10-21T17:27:51.162Z,15.48
2022-10-21T17:30:19.360Z,15.49
2022-10-21T17:32:48.791Z,15.53
2022-10-21T17:35:19.646Z,15.49
2022-10-21T17:37:48.313Z,15.44
2022-10-21T17:40:18.626Z,15.46
2022-10-21T17:42:47.062Z,15.50
2022-10-21T17:45:16.143Z,15.55
2022-10-21T17:47:44.404Z,15.53
2022-10-21T17:50:14.657Z,15.50
2022-10-21T17:52:43.573Z,15.50
2022-10-21T17:55:11.549Z,15.51
2022-10-21T17:57:39.471Z,15.45
2022-10-21T18:00:09.018Z,15.40
2022-10-21T18:02:37.957Z,15.41
2022-10-21T18:05:08.114Z,15.43
2022-10-21T18:07:37.810Z,15.43
2022-10-21T18:10:07.234Z,15.40
2022-10-21T18:12:35.537Z,15.40
2022-10-21T18:15:03.683Z,15.38
2022-10-21T18:17:31.620Z,15.40
2022-10-21T18:19:59.499Z,15.35
2022-10-21T18:22:27.523Z,15.33
2022-10-21T18:24:56.825Z,15.39
2022-10-21T18:27:24.882Z,15.40
2022-10-21T18:29:52.812Z,15.41
2022-10-21T18:32:20.745Z,15.45
2022-10-21T18:34:48.652Z,15.46
2022-10-21T18:37:16.570Z,15.45
2022-10-21T18:39:44.611Z,15.48
2022-10-21T18:42:13.991Z,15.48
2022-10-21T18:44:41.991Z,15.44
2022-10-21T18:47:09.930Z,15.44
2022-10-21T18:49:37.973Z,15.30
2022-10-21T18:52:06.011Z,15.14
2022-10-21T18:54:33.947Z,15.16
2022-10-21T18:57:01.843Z,15.23
2022-10-21T18:59:31.250Z,15.34
2022-10-21T19:01:59.201Z,15.40
2022-10-21T19:04:27.121Z,15.43
2022-10-21T19:06:55.243Z,15.45
2022-10-21T19:09:25.883Z,15.46
2022-10-21T19:11:54.358Z,15.43
2022-10-21T19:14:22.385Z,15.44
2022-10-21T19:16:51.784Z,15.47
2022-10-21T19:19:19.686Z,15.45
2022-10-21T19:21:48.031Z,15.41
2022-10-21T19:24:15.985Z,15.40
2022-10-21T19:26:44.885Z,15.42
2022-10-21T19:29:16.215Z,15.43
2022-10-21T19:31:45.019Z,15.44
2022-10-21T19:34:15.042Z,15.45
2022-10-21T19:36:43.178Z,15.47
2022-10-21T19:39:11.856Z,15.45
2022-10-21T19:41:39.860Z,15.40
2022-10-21T19:44:08.518Z,15.29
2022-10-21T19:46:36.809Z,15.24
2022-10-21T19:49:06.497Z,15.29
2022-10-21T19:51:36.747Z,15.36
2022-10-21T19:54:06.232Z,15.38
2022-10-21T19:56:34.712Z,15.40
2022-10-21T19:59:03.242Z,15.39
2022-10-21T20:01:32.770Z,15.40
2022-10-21T20:04:02.476Z,15.41
2022-10-21T20:06:32.638Z,15.41
2022-10-21T20:09:05.083Z,15.40
2022-10-21T20:11:33.195Z,15.40
2022-10-21T20:14:01.092Z,15.29
2022-10-21T20:16:30.795Z,15.22
2022-10-21T20:18:59.168Z,15.23
2022-10-21T20:21:27.309Z,15.23
2022-10-21T20:23:55.388Z,15.27
2022-10-21T20:26:24.829Z,15.27
2022-10-21T20:28:53.767Z,14.93
2022-10-21T20:31:21.848Z,14.94
2022-10-21T20:33:52.228Z,15.08
2022-10-21T20:36:23.287Z,15.18
2022-10-21T20:38:52.924Z,15.25
2022-10-21T20:41:23.769Z,15.28
2022-10-21T20:43:54.195Z,15.21
2022-10-21T20:46:24.594Z,15.05
2022-10-21T20:48:54.406Z,15.09
2022-10-21T20:51:23.951Z,15.19
2022-10-21T20:53:53.148Z,15.23
2022-10-21T20:56:22.278Z,15.27
2022-10-21T20:58:50.367Z,15.30
2022-10-21T21:01:24.562Z,15.33
2022-10-21T21:03:53.658Z,15.34
2022-10-21T21:06:21.749Z,15.32
2022-10-21T21:09:08.640Z,15.20
2022-10-21T21:11:37.845Z,15.23
2022-10-21T21:14:05.947Z,15.29
2022-10-21T21:16:35.289Z,15.33
2022-10-21T21:19:05.481Z,15.34
2022-10-21T21:21:35.482Z,15.30
2022-10-21T21:24:03.975Z,15.20
2022-10-21T21:26:34.310Z,15.29
2022-10-21T21:29:03.128Z,15.33
2022-10-21T21:31:31.719Z,14.93
2022-10-21T21:34:01.271Z,14.78
2022-10-21T21:36:29.262Z,14.95
2022-10-21T21:38:57.241Z,15.11
2022-10-21T21:41:26.733Z,15.19
2022-10-21T21:43:56.576Z,15.24
2022-10-21T21:46:25.866Z,15.25
2022-10-21T21:48:57.394Z,15.17
2022-10-21T21:51:30.309Z,15.14
2022-10-21T21:53:59.550Z,15.16
2022-10-21T21:56:28.268Z,15.19
2022-10-21T21:58:57.948Z,15.22
2022-10-21T22:01:28.111Z,15.21
2022-10-21T22:03:57.070Z,15.23
2022-10-21T22:06:28.011Z,15.29
2022-10-21T22:08:58.207Z,15.31
2022-10-21T22:11:29.097Z,15.35
2022-10-21T22:13:57.247Z,15.38
2022-10-21T22:16:30.118Z,15.40
2022-10-21T22:18:59.956Z,15.39
2022-10-21T22:21:28.296Z,15.40
2022-10-21T22:23:57.608Z,15.42
2022-10-21T22:26:26.837Z,15.43
2022-10-21T22:28:55.307Z,15.42
2022-10-21T22:31:29.125Z,15.41
2022-10-21T22:34:00.438Z,15.38
2022-10-21T22:36:28.565Z,15.36
2022-10-21T22:38:58.175Z,15.36
2022-10-21T22:41:26.473Z,15.36
2022-10-21T22:43:54.376Z,15.37
2022-10-21T22:46:34.244Z,15.34
2022-10-21T22:49:04.043Z,15.31
2022-10-21T22:51:32.482Z,15.32
2022-10-21T22:54:01.919Z,15.32
2022-10-21T22:56:30.214Z,15.31
2022-10-21T22:58:58.330Z,15.33
2022-10-21T23:01:30.169Z,15.32
2022-10-21T23:04:02.530Z,15.31
2022-10-21T23:06:30.785Z,15.31
2022-10-21T23:08:58.970Z,15.31
2022-10-21T23:11:28.463Z,15.32
2022-10-21T23:14:03.360Z,15.36
2022-10-21T23:16:36.150Z,15.37
2022-10-21T23:19:04.375Z,15.36
2022-10-21T23:21:32.419Z,15.34
2022-10-21T23:24:00.428Z,15.31
2022-10-21T23:26:29.770Z,15.27
2022-10-21T23:28:57.731Z,15.28
2022-10-21T23:31:25.679Z,15.25
2022-10-21T23:33:53.627Z,15.22
2022-10-21T23:36:21.630Z,15.17
2022-10-21T23:38:49.562Z,15.18
2022-10-21T23:41:17.494Z,15.23
2022-10-21T23:43:46.796Z,15.29
2022-10-21T23:46:15.111Z,15.31
2022-10-21T23:48:43.215Z,15.31
2022-10-21T23:51:11.165Z,15.30
2022-10-21T23:53:39.180Z,15.32
2022-10-21T23:56:07.929Z,15.33
2022-10-21T23:58:35.809Z,15.30
